createdAt,value
2024-02-10T00:00:21.576Z,0.50
2024-02-10T00:02:50.318Z,0.70
2024-02-10T00:05:17.586Z,0.80
2024-02-10T00:07:52.142Z,0.70
2024-02-10T00:10:21.598Z,0.70
2024-02-10T00:12:48.592Z,0.40
2024-02-10T00:15:15.862Z,0.90
2024-02-10T00:17:42.807Z,0.60
2024-02-10T00:20:17.120Z,1.30
2024-02-10T00:22:44.528Z,0.80
2024-02-10T00:25:11.556Z,0.60
2024-02-10T00:27:38.816Z,0.70
2024-02-10T00:30:05.915Z,0.70
2024-02-10T00:32:34.300Z,0.40
2024-02-10T00:35:01.399Z,0.90
2024-02-10T00:37:28.443Z,1.00
2024-02-10T00:39:55.963Z,0.40
2024-02-10T00:42:25.372Z,0.30
2024-02-10T00:44:52.524Z,0.70
2024-02-10T00:47:19.413Z,0.80
2024-02-10T00:49:46.541Z,0.70
2024-02-10T00:52:18.501Z,0.70
2024-02-10T00:54:48.655Z,0.60
2024-02-10T00:57:15.533Z,0.90
2024-02-10T00:59:42.505Z,0.90
2024-02-10T01:02:09.847Z,0.70
2024-02-10T01:04:37.152Z,0.60
2024-02-10T01:07:04.155Z,0.50
2024-02-10T01:09:31.234Z,0.60
2024-02-10T01:11:58.081Z,0.50
2024-02-10T01:14:30.979Z,0.60
2024-02-10T01:16:58.816Z,0.50
2024-02-10T01:19:29.378Z,0.80
2024-02-10T01:21:57.312Z,0.80
2024-02-10T01:24:29.957Z,0.60
2024-02-10T01:26:56.915Z,0.60
2024-02-10T01:29:25.748Z,0.60
2024-02-10T01:31:52.653Z,1.10
2024-02-10T01:34:19.753Z,0.70
2024-02-10T01:36:46.734Z,0.50
2024-02-10T01:39:13.712Z,0.60
2024-02-10T01:41:40.665Z,0.90
2024-02-10T01:44:07.611Z,0.70
2024-02-10T01:46:35.737Z,0.50
2024-02-10T01:49:04.065Z,0.70
2024-02-10T01:51:31.261Z,0.50
2024-02-10T01:53:59.171Z,0.90
2024-02-10T01:56:30.855Z,0.60
2024-02-10T01:58:58.327Z,0.40
2024-02-10T02:01:25.281Z,0.70
2024-02-10T02:03:52.643Z,0.40
2024-02-10T02:06:20.194Z,0.70
2024-02-10T02:08:50.868Z,0.60
2024-02-10T02:11:18.217Z,0.70
2024-02-10T02:13:45.376Z,0.70
2024-02-10T02:16:13.898Z,0.50
2024-02-10T02:18:42.971Z,0.40
2024-02-10T02:21:10.128Z,0.40
2024-02-10T02:23:37.018Z,0.70
2024-02-10T02:26:03.970Z,0.90
2024-02-10T02:28:30.816Z,1.00
2024-02-10T02:30:58.289Z,1.40
2024-02-10T02:33:25.179Z,2.30
2024-02-10T02:35:55.155Z,2.00
2024-02-10T02:38:24.875Z,2.10
2024-02-10T02:40:51.871Z,2.80
2024-02-10T02:43:18.798Z,2.80
2024-02-10T02:45:45.748Z,2.10
2024-02-10T02:48:12.895Z,2.20
2024-02-10T02:50:41.438Z,2.70
2024-02-10T02:53:08.407Z,2.90
2024-02-10T02:55:35.356Z,2.30
2024-02-10T02:58:03.285Z,1.90
2024-02-10T03:00:33.434Z,1.90
2024-02-10T03:03:04.402Z,2.60
2024-02-10T03:05:35.123Z,1.80
2024-02-10T03:08:03.263Z,2.20
2024-02-10T03:10:30.997Z,1.30
2024-02-10T03:12:58.214Z,1.80
2024-02-10T03:15:25.585Z,1.90
2024-02-10T03:17:52.611Z,2.00
2024-02-10T03:20:25.330Z,2.50
2024-02-10T03:23:03.624Z,2.70
2024-02-10T03:25:34.132Z,2.30
2024-02-10T03:28:04.981Z,2.80
2024-02-10T03:30:32.146Z,3.30
2024-02-10T03:33:03.250Z,3.00
2024-02-10T03:35:32.818Z,2.70
2024-02-10T03:37:59.973Z,2.50
2024-02-10T03:40:27.195Z,2.00
2024-02-10T03:42:54.255Z,2.80
2024-02-10T03:45:23.230Z,2.30
2024-02-10T03:47:52.425Z,2.60
2024-02-10T03:50:34.120Z,2.10
2024-02-10T03:53:01.295Z,2.30
2024-02-10T03:55:31.550Z,2.40
2024-02-10T03:58:00.794Z,2.80
2024-02-10T04:00:30.020Z,2.10
2024-02-10T04:02:57.251Z,2.20
2024-02-10T04:05:24.336Z,2.40
2024-02-10T04:07:52.765Z,1.60
2024-02-10T04:10:20.633Z,1.90
2024-02-10T04:12:50.465Z,2.00
2024-02-10T04:15:17.488Z,2.00
2024-02-10T04:17:57.190Z,1.90
2024-02-10T04:20:30.353Z,1.80
2024-02-10T04:22:58.709Z,1.80
2024-02-10T04:25:32.891Z,2.00
2024-02-10T04:28:06.072Z,1.60
2024-02-10T04:30:33.056Z,1.40
2024-02-10T04:33:00.143Z,1.60
2024-02-10T04:35:27.242Z,2.00
2024-02-10T04:37:55.407Z,1.90
2024-02-10T04:40:26.667Z,1.90
2024-02-10T04:42:55.351Z,2.70
2024-02-10T04:45:29.291Z,1.90
2024-02-10T04:47:58.172Z,3.50
2024-02-10T04:50:25.550Z,4.50
2024-02-10T04:52:52.700Z,3.40
2024-02-10T04:55:22.884Z,3.60
2024-02-10T04:57:49.899Z,3.80
2024-02-10T05:00:23.334Z,4.10
2024-02-10T05:02:57.449Z,3.00
2024-02-10T05:05:24.571Z,2.60
2024-02-10T05:07:59.970Z,3.00
2024-02-10T05:10:28.478Z,3.00
2024-02-10T05:15:41.010Z,2.70
2024-02-10T05:18:10.550Z,3.00
2024-02-10T05:20:37.805Z,2.80
2024-02-10T05:23:06.177Z,2.70
2024-02-10T05:25:37.225Z,2.70
2024-02-10T05:28:04.838Z,2.40
2024-02-10T05:30:31.893Z,2.10
2024-02-10T05:33:08.922Z,3.60
2024-02-10T05:35:38.970Z,2.30
2024-02-10T05:38:06.030Z,2.10
2024-02-10T05:40:33.197Z,2.60
2024-02-10T05:43:01.215Z,2.70
2024-02-10T05:45:29.474Z,2.70
2024-02-10T05:47:57.005Z,2.60
2024-02-10T05:50:25.322Z,2.40
2024-02-10T05:52:55.328Z,2.70
2024-02-10T05:55:27.660Z,2.20
2024-02-10T05:58:00.578Z,2.50
2024-02-10T06:00:27.730Z,2.70
2024-02-10T06:02:55.493Z,2.40
2024-02-10T06:05:25.693Z,2.90
2024-02-10T06:07:56.069Z,2.10
2024-02-10T06:10:23.290Z,2.50
2024-02-10T06:12:51.252Z,2.50
2024-02-10T06:15:19.419Z,2.70
2024-02-10T06:17:55.962Z,2.20
2024-02-10T06:20:26.418Z,2.30
2024-02-10T06:22:54.900Z,2.50
2024-02-10T06:25:29.209Z,2.60
2024-02-10T06:28:00.891Z,2.50
2024-02-10T06:30:32.234Z,2.40
2024-02-10T06:32:59.880Z,2.30
2024-02-10T06:35:27.705Z,2.80
2024-02-10T06:37:56.633Z,2.80
2024-02-10T06:40:24.598Z,2.60
2024-02-10T06:42:54.205Z,2.60
2024-02-10T06:45:28.860Z,2.00
2024-02-10T06:47:56.046Z,2.10
2024-02-10T06:50:28.439Z,2.50
2024-02-10T06:52:56.551Z,2.40
2024-02-10T06:55:28.362Z,2.40
2024-02-10T06:57:59.110Z,2.80
2024-02-10T07:00:26.401Z,4.20
2024-02-10T07:02:55.464Z,5.10
2024-02-10T07:05:24.701Z,8.10
2024-02-10T07:07:57.333Z,9.10
2024-02-10T07:10:25.095Z,11.20
2024-02-10T07:12:57.519Z,10.30
2024-02-10T07:15:27.376Z,8.70
2024-02-10T07:17:54.999Z,6.30
2024-02-10T07:20:25.347Z,5.30
2024-02-10T07:22:56.801Z,3.80
2024-02-10T07:25:24.494Z,3.80
2024-02-10T07:27:52.434Z,3.00
2024-02-10T07:30:20.189Z,2.60
2024-02-10T07:32:49.184Z,2.40
2024-02-10T07:35:17.752Z,2.50
2024-02-10T07:37:45.661Z,3.50
2024-02-10T07:40:14.473Z,5.10
2024-02-10T07:42:41.674Z,7.80
2024-02-10T07:45:09.238Z,7.80
2024-02-10T07:47:36.211Z,12.50
2024-02-10T07:50:05.100Z,12.00
2024-02-10T07:52:33.183Z,8.20
2024-02-10T07:55:00.485Z,7.40
2024-02-10T07:57:27.936Z,8.70
2024-02-10T07:59:55.604Z,11.70
2024-02-10T08:02:32.507Z,19.20
2024-02-10T08:05:01.011Z,17.20
2024-02-10T08:07:37.000Z,18.40
2024-02-10T08:10:08.424Z,15.50
2024-02-10T08:12:37.251Z,17.60
2024-02-10T08:15:04.433Z,34.70
2024-02-10T08:17:32.840Z,48.50
2024-02-10T08:20:04.424Z,37.40
2024-02-10T08:22:37.491Z,26.80
2024-02-10T08:25:06.009Z,27.10
2024-02-10T08:27:33.189Z,28.00
2024-02-10T08:30:01.110Z,19.50
2024-02-10T08:32:36.294Z,14.00
2024-02-10T08:35:03.442Z,10.80
2024-02-10T08:37:31.637Z,10.10
2024-02-10T08:39:59.551Z,9.80
2024-02-10T08:42:28.780Z,9.90
2024-02-10T08:44:55.877Z,9.30
2024-02-10T08:47:22.954Z,8.70
2024-02-10T08:49:51.282Z,9.50
2024-02-10T08:52:24.052Z,9.40
2024-02-10T08:54:52.489Z,8.10
2024-02-10T08:57:25.843Z,11.00
2024-02-10T08:59:53.817Z,13.10
2024-02-10T09:02:28.649Z,15.90
2024-02-10T09:04:55.737Z,8.80
2024-02-10T09:07:22.772Z,12.30
2024-02-10T09:09:49.913Z,6.10
2024-02-10T09:12:18.657Z,3.70
2024-02-10T09:14:50.182Z,6.00
2024-02-10T09:17:20.183Z,3.70
2024-02-10T09:19:47.196Z,6.50
2024-02-10T09:22:15.850Z,6.70
2024-02-10T09:24:42.902Z,9.80
2024-02-10T09:27:12.805Z,9.10
2024-02-10T09:29:39.886Z,4.00
2024-02-10T09:32:07.990Z,3.30
2024-02-10T09:34:35.669Z,7.50
2024-02-10T09:37:02.813Z,3.40
2024-02-10T09:39:29.912Z,2.20
2024-02-10T09:42:05.606Z,2.70
2024-02-10T09:44:36.017Z,1.90
2024-02-10T09:47:12.964Z,3.40
2024-02-10T09:49:40.287Z,4.70
2024-02-10T09:52:12.772Z,5.30
2024-02-10T09:54:40.821Z,4.30
2024-02-10T09:57:12.938Z,3.80
2024-02-10T09:59:40.737Z,5.90
2024-02-10T10:02:10.322Z,2.40
2024-02-10T10:04:37.376Z,2.90
2024-02-10T10:07:08.674Z,2.50
2024-02-10T10:09:35.743Z,2.50
2024-02-10T10:12:02.688Z,3.00
2024-02-10T10:14:33.826Z,4.60
2024-02-10T10:17:05.353Z,5.20
2024-02-10T10:19:33.216Z,2.90
2024-02-10T10:22:01.695Z,2.80
2024-02-10T10:24:29.583Z,3.10
2024-02-10T10:27:03.894Z,2.90
2024-02-10T10:29:32.894Z,2.30
2024-02-10T10:32:01.450Z,3.00
2024-02-10T10:34:33.551Z,3.40
2024-02-10T10:37:06.084Z,3.00
2024-02-10T10:39:37.599Z,2.20
2024-02-10T10:42:04.943Z,2.40
2024-02-10T10:44:33.664Z,2.00
2024-02-10T10:47:01.612Z,2.60
2024-02-10T10:49:28.807Z,2.90
2024-02-10T10:52:05.560Z,2.60
2024-02-10T10:54:41.005Z,5.80
2024-02-10T10:57:17.845Z,2.50
2024-02-10T10:59:57.158Z,2.50
2024-02-10T11:02:37.453Z,2.60
2024-02-10T11:05:14.587Z,2.90
2024-02-10T11:07:44.317Z,2.50
2024-02-10T11:10:12.861Z,2.60
2024-02-10T11:12:44.313Z,2.60
2024-02-10T11:15:20.001Z,3.40
2024-02-10T11:18:01.305Z,2.10
2024-02-10T11:20:31.911Z,2.40
2024-02-10T11:23:09.341Z,2.60
2024-02-10T11:25:38.196Z,2.80
2024-02-10T11:28:07.265Z,3.10
2024-02-10T11:33:24.643Z,3.00
2024-02-10T11:35:54.387Z,2.50
2024-02-10T11:38:25.053Z,2.30
2024-02-10T11:40:52.546Z,2.70
2024-02-10T11:43:19.769Z,2.50
2024-02-10T11:48:34.034Z,2.70
2024-02-10T11:51:04.602Z,2.50
2024-02-10T11:53:35.348Z,2.20
2024-02-10T11:56:08.132Z,3.40
2024-02-10T11:58:41.233Z,2.40
2024-02-10T12:01:09.370Z,2.50
2024-02-10T12:03:36.379Z,2.10
2024-02-10T12:06:04.840Z,2.40
2024-02-10T12:11:18.418Z,2.10
2024-02-10T12:13:47.298Z,2.90
2024-02-10T12:16:19.510Z,1.50
2024-02-10T12:18:46.929Z,2.60
2024-02-10T12:21:15.882Z,2.20
2024-02-10T12:23:48.245Z,1.90
2024-02-10T12:26:15.904Z,1.80
2024-02-10T12:28:45.817Z,2.30
2024-02-10T12:31:13.646Z,2.30
2024-02-10T12:33:44.277Z,3.10
2024-02-10T12:36:11.528Z,3.60
2024-02-10T12:38:39.966Z,15.50
2024-02-10T12:41:07.003Z,17.70
2024-02-10T12:43:34.105Z,6.50
2024-02-10T12:46:01.161Z,4.10
2024-02-10T12:48:28.187Z,4.50
2024-02-10T12:50:57.995Z,3.20
2024-02-10T12:53:29.949Z,2.80
2024-02-10T12:55:57.251Z,2.70
2024-02-10T12:58:29.869Z,3.40
2024-02-10T13:01:01.669Z,2.60
2024-02-10T13:03:28.657Z,2.40
2024-02-10T13:05:56.412Z,2.70
2024-02-10T13:08:23.486Z,3.00
2024-02-10T13:10:50.569Z,2.40
2024-02-10T13:13:18.023Z,3.40
2024-02-10T13:15:44.987Z,2.50
2024-02-10T13:18:15.759Z,2.60
2024-02-10T13:20:42.926Z,1.90
2024-02-10T13:23:10.136Z,2.50
2024-02-10T13:25:44.425Z,1.80
2024-02-10T13:28:13.594Z,2.30
2024-02-10T13:30:42.876Z,2.10
2024-02-10T13:33:09.999Z,2.00
2024-02-10T13:35:42.893Z,2.50
2024-02-10T13:38:28.358Z,1.80
2024-02-10T13:41:13.972Z,3.50
2024-02-10T13:44:00.860Z,2.20
2024-02-10T13:46:46.796Z,2.70
2024-02-10T13:49:32.313Z,2.30
2024-02-10T13:52:20.385Z,2.00
2024-02-10T13:55:05.882Z,2.40
2024-02-10T13:57:51.622Z,2.00
2024-02-10T14:00:32.249Z,2.70
2024-02-10T14:03:02.992Z,1.60
2024-02-10T14:05:44.331Z,1.70
2024-02-10T14:08:35.842Z,1.60
2024-02-10T14:11:04.472Z,2.40
2024-02-10T14:13:31.978Z,1.90
2024-02-10T14:16:00.416Z,1.40
2024-02-10T14:18:30.647Z,1.70
2024-02-10T14:21:03.181Z,1.20
2024-02-10T14:23:30.630Z,2.00
2024-02-10T14:26:13.797Z,1.20
2024-02-10T14:28:51.516Z,1.50
2024-02-10T14:31:19.810Z,1.50
2024-02-10T14:33:51.306Z,1.40
2024-02-10T14:36:36.591Z,1.60
2024-02-10T14:39:16.718Z,2.60
2024-02-10T14:41:45.125Z,2.20
2024-02-10T14:44:12.291Z,2.10
2024-02-10T14:46:49.353Z,2.10
2024-02-10T14:49:17.041Z,2.10
2024-02-10T14:51:47.011Z,2.00
2024-02-10T14:54:16.333Z,2.00
2024-02-10T14:56:43.333Z,2.30
2024-02-10T14:59:13.615Z,1.50
2024-02-10T15:01:43.706Z,1.90
2024-02-10T15:04:13.366Z,1.80
2024-02-10T15:06:42.281Z,2.90
2024-02-10T15:09:09.856Z,1.20
2024-02-10T15:11:41.105Z,1.60
2024-02-10T15:14:10.765Z,1.60
2024-02-10T15:16:38.548Z,1.50
2024-02-10T15:19:05.649Z,1.80
2024-02-10T15:21:34.452Z,2.00
2024-02-10T15:24:08.393Z,1.80
2024-02-10T15:26:35.510Z,1.80
2024-02-10T15:29:03.213Z,2.90
2024-02-10T15:31:35.815Z,1.80
2024-02-10T15:34:05.999Z,1.00
2024-02-10T15:36:38.455Z,1.00
2024-02-10T15:39:11.771Z,1.10
2024-02-10T15:41:45.339Z,1.80
2024-02-10T15:44:13.561Z,1.90
2024-02-10T15:46:42.526Z,1.20
2024-02-10T15:49:13.094Z,2.00
2024-02-10T15:51:40.350Z,1.10
2024-02-10T15:54:09.937Z,1.20
2024-02-10T15:56:42.704Z,1.30
2024-02-10T15:59:09.800Z,0.80
2024-02-10T16:01:37.420Z,1.50
2024-02-10T16:04:09.915Z,1.60
2024-02-10T16:06:40.367Z,1.60
2024-02-10T16:09:07.509Z,1.60
2024-02-10T16:11:34.819Z,1.50
2024-02-10T16:14:01.843Z,2.60
2024-02-10T16:16:29.344Z,1.90
2024-02-10T16:18:58.824Z,3.10
2024-02-10T16:21:30.261Z,2.20
2024-02-10T16:23:58.032Z,2.80
2024-02-10T16:26:25.390Z,4.00
2024-02-10T16:28:57.310Z,5.10
2024-02-10T16:31:26.027Z,3.50
2024-02-10T16:33:59.736Z,3.60
2024-02-10T16:36:32.284Z,2.90
2024-02-10T16:39:02.116Z,3.70
2024-02-10T16:41:35.126Z,4.00
2024-02-10T16:44:02.837Z,3.20
2024-02-10T16:46:30.159Z,3.50
2024-02-10T16:48:57.348Z,3.40
2024-02-10T16:51:34.492Z,4.00
2024-02-10T16:54:11.100Z,3.50
2024-02-10T16:56:39.485Z,4.40
2024-02-10T16:59:06.639Z,3.60
2024-02-10T17:01:33.869Z,3.60
2024-02-10T17:04:05.303Z,3.50
2024-02-10T17:06:38.017Z,3.40
2024-02-10T17:09:06.667Z,2.80
2024-02-10T17:11:35.228Z,3.10
2024-02-10T17:14:07.462Z,2.70
2024-02-10T17:16:34.661Z,3.10
2024-02-10T17:19:06.135Z,3.60
2024-02-10T17:21:35.285Z,3.60
2024-02-10T17:24:02.516Z,3.90
2024-02-10T17:26:30.380Z,5.60
2024-02-10T17:29:03.447Z,4.40
2024-02-10T17:31:30.475Z,5.90
2024-02-10T17:33:57.474Z,6.50
2024-02-10T17:36:24.502Z,6.10
2024-02-10T17:38:55.793Z,6.40
2024-02-10T17:41:25.745Z,5.90
2024-02-10T17:43:52.822Z,5.20
2024-02-10T17:46:20.459Z,6.30
2024-02-10T17:48:47.817Z,5.70
2024-02-10T17:51:15.594Z,6.70
2024-02-10T17:53:44.113Z,7.50
2024-02-10T17:56:13.449Z,7.60
2024-02-10T17:58:46.146Z,8.70
2024-02-10T18:01:15.672Z,9.30
2024-02-10T18:03:42.973Z,10.90
2024-02-10T18:06:13.610Z,11.90
2024-02-10T18:08:41.954Z,11.40
2024-02-10T18:11:16.220Z,11.50
2024-02-10T18:13:49.777Z,12.10
2024-02-10T18:16:17.829Z,10.80
2024-02-10T18:18:50.427Z,11.60
2024-02-10T18:21:20.839Z,11.40
2024-02-10T18:23:49.404Z,10.30
2024-02-10T18:26:21.083Z,9.60
2024-02-10T18:28:50.887Z,8.40
2024-02-10T18:31:19.273Z,5.70
2024-02-10T18:33:49.779Z,5.60
2024-02-10T18:36:17.051Z,6.20
2024-02-10T18:38:52.518Z,7.30
2024-02-10T18:41:19.797Z,6.60
2024-02-10T18:43:47.089Z,6.30
2024-02-10T18:46:14.722Z,6.00
2024-02-10T18:48:51.312Z,6.80
2024-02-10T18:51:22.075Z,6.60
2024-02-10T18:53:49.550Z,7.50
2024-02-10T18:56:26.982Z,7.30
2024-02-10T18:58:54.680Z,6.90
2024-02-10T19:01:27.215Z,6.30
2024-02-10T19:03:55.944Z,6.60
2024-02-10T19:06:26.069Z,7.10
2024-02-10T19:08:55.326Z,6.40
2024-02-10T19:11:26.329Z,6.60
2024-02-10T19:13:55.889Z,6.40
2024-02-10T19:16:23.628Z,7.70
2024-02-10T19:18:53.102Z,8.50
2024-02-10T19:21:21.183Z,8.50
2024-02-10T19:23:50.124Z,6.70
2024-02-10T19:26:21.657Z,6.30
2024-02-10T19:28:49.589Z,5.90
2024-02-10T19:31:19.180Z,7.00
2024-02-10T19:33:50.608Z,6.10
2024-02-10T19:36:21.506Z,7.20
2024-02-10T19:38:49.608Z,6.10
2024-02-10T19:41:19.961Z,5.60
2024-02-10T19:43:51.957Z,5.60
2024-02-10T19:46:19.837Z,5.30
2024-02-10T19:48:51.048Z,5.50
2024-02-10T19:51:21.009Z,5.20
2024-02-10T19:53:54.815Z,4.20
2024-02-10T19:56:22.695Z,4.50
2024-02-10T19:58:56.750Z,3.80
2024-02-10T20:04:13.393Z,3.30
2024-02-10T20:06:43.112Z,2.40
2024-02-10T20:09:11.103Z,3.00
2024-02-10T20:11:40.700Z,2.80
2024-02-10T20:14:09.187Z,3.70
2024-02-10T20:16:37.303Z,4.20
2024-02-10T20:19:11.542Z,3.50
2024-02-10T20:21:40.493Z,3.50
2024-02-10T20:24:08.108Z,3.70
2024-02-10T20:26:36.219Z,2.80
2024-02-10T20:29:05.472Z,3.10
2024-02-10T20:31:32.991Z,2.30
2024-02-10T20:34:01.515Z,3.00
2024-02-10T20:36:29.136Z,4.20
2024-02-10T20:38:58.516Z,4.00
2024-02-10T20:41:26.312Z,4.60
2024-02-10T20:43:56.296Z,4.10
2024-02-10T20:46:27.740Z,4.40
2024-02-10T20:48:56.659Z,5.00
2024-02-10T20:51:30.997Z,5.40
2024-02-10T20:54:02.480Z,5.30
2024-02-10T20:56:30.042Z,5.10
2024-02-10T20:58:58.988Z,5.30
2024-02-10T21:01:29.559Z,4.90
2024-02-10T21:03:58.130Z,4.70
2024-02-10T21:06:28.229Z,4.20
2024-02-10T21:08:56.098Z,4.00
2024-02-10T21:11:23.844Z,4.50
2024-02-10T21:13:51.991Z,3.60
2024-02-10T21:16:22.380Z,3.70
2024-02-10T21:21:40.017Z,3.20
2024-02-10T21:24:13.031Z,3.90
2024-02-10T21:26:41.788Z,3.10
2024-02-10T21:29:14.551Z,2.90
2024-02-10T21:31:45.743Z,3.30
2024-02-10T21:34:13.998Z,3.30
2024-02-10T21:36:56.376Z,3.40
2024-02-10T21:39:27.816Z,3.00
2024-02-10T21:41:59.168Z,2.80
2024-02-10T21:44:26.926Z,2.50
2024-02-10T21:46:55.042Z,2.90
2024-02-10T21:49:38.191Z,3.40
2024-02-10T21:52:11.738Z,2.50
2024-02-10T21:54:39.157Z,3.20
2024-02-10T21:57:11.912Z,2.60
2024-02-10T21:59:38.964Z,3.40
2024-02-10T22:02:08.180Z,3.30
2024-02-10T22:04:35.342Z,3.10
2024-02-10T22:07:07.488Z,3.40
2024-02-10T22:09:34.566Z,2.80
2024-02-10T22:12:03.784Z,3.20
2024-02-10T22:14:31.139Z,3.00
2024-02-10T22:16:58.835Z,3.60
2024-02-10T22:19:26.174Z,3.40
2024-02-10T22:21:55.558Z,3.10
2024-02-10T22:24:30.984Z,3.70
2024-02-10T22:26:57.970Z,3.40
2024-02-10T22:29:26.340Z,3.30
2024-02-10T22:31:53.541Z,4.90
2024-02-10T22:34:20.779Z,4.10
2024-02-10T22:36:48.946Z,4.30
2024-02-10T22:39:26.465Z,4.30
2024-02-10T22:42:00.164Z,4.40
2024-02-10T22:44:30.187Z,4.30
2024-02-10T22:47:07.005Z,4.40
2024-02-10T22:49:39.909Z,4.60
2024-02-10T22:52:09.648Z,3.90
2024-02-10T22:54:41.975Z,4.00
2024-02-10T22:57:08.993Z,4.40
2024-02-10T22:59:36.056Z,4.80
2024-02-10T23:02:05.180Z,4.30
2024-02-10T23:04:32.238Z,4.40
2024-02-10T23:07:00.161Z,4.40
2024-02-10T23:09:35.503Z,4.00
2024-02-10T23:12:05.067Z,3.90
2024-02-10T23:14:32.204Z,4.40
2024-02-10T23:17:02.824Z,4.40
2024-02-10T23:19:31.307Z,3.90
2024-02-10T23:21:58.676Z,4.30
2024-02-10T23:24:31.527Z,4.10
2024-02-10T23:27:00.077Z,4.30
2024-02-10T23:29:32.325Z,4.20
2024-02-10T23:32:02.730Z,4.60
2024-02-10T23:34:34.561Z,4.90
2024-02-10T23:37:04.569Z,4.00
2024-02-10T23:39:35.017Z,3.90
2024-02-10T23:42:02.300Z,4.00
2024-02-10T23:44:30.033Z,4.00
2024-02-10T23:46:57.077Z,4.10
2024-02-10T23:49:24.098Z,3.80
2024-02-10T23:51:54.344Z,3.50
2024-02-10T23:54:21.377Z,3.50
2024-02-10T23:56:48.377Z,3.50
2024-02-10T23:59:15.408Z,3.60
